sensor_id;sensor_type;location;lat;lon;timestamp;P1;durP1;ratioP1;P2;durP2;ratioP2
21432;SDS011;18592;49.708;10.900;2022-07-29T00:01:09;2.25;;;1.40;;
21432;SDS011;18592;49.708;10.900;2022-07-29T00:03:20;3.38;;;2.00;;
21432;SDS011;18592;49.708;10.900;2022-07-29T00:05:21;3.55;;;1.77;;
21432;SDS011;18592;49.708;10.900;2022-07-29T00:07:23;4.28;;;1.75;;
21432;SDS011;18592;49.708;10.900;2022-07-29T00:09:25;2.80;;;1.48;;
21432;SDS011;18592;49.708;10.900;2022-07-29T00:11:26;1.92;;;1.80;;
21432;SDS011;18592;49.708;10.900;2022-07-29T00:13:28;2.30;;;1.50;;
21432;SDS011;18592;49.708;10.900;2022-07-29T00:15:32;4.60;;;1.60;;
21432;SDS011;18592;49.708;10.900;2022-07-29T00:17:34;2.20;;;1.80;;
21432;SDS011;18592;49.708;10.900;2022-07-29T00:19:36;3.47;;;2.03;;
21432;SDS011;18592;49.708;10.900;2022-07-29T00:21:37;3.35;;;1.45;;
21432;SDS011;18592;49.708;10.900;2022-07-29T00:23:39;1.85;;;1.60;;
21432;SDS011;18592;49.708;10.900;2022-07-29T00:25:41;2.75;;;1.95;;
21432;SDS011;18592;49.708;10.900;2022-07-29T00:27:42;1.83;;;1.50;;
21432;SDS011;18592;49.708;10.900;2022-07-29T00:29:44;5.38;;;1.63;;
21432;SDS011;18592;49.708;10.900;2022-07-29T00:31:46;2.03;;;1.70;;
21432;SDS011;18592;49.708;10.900;2022-07-29T00:33:48;2.60;;;1.77;;
21432;SDS011;18592;49.708;10.900;2022-07-29T00:35:49;2.22;;;1.65;;
21432;SDS011;18592;49.708;10.900;2022-07-29T00:37:53;3.47;;;1.80;;
21432;SDS011;18592;49.708;10.900;2022-07-29T00:39:54;2.78;;;1.83;;
21432;SDS011;18592;49.708;10.900;2022-07-29T00:41:56;2.00;;;1.60;;
21432;SDS011;18592;49.708;10.900;2022-07-29T00:43:58;3.30;;;1.70;;
21432;SDS011;18592;49.708;10.900;2022-07-29T00:46:01;2.28;;;1.63;;
21432;SDS011;18592;49.708;10.900;2022-07-29T00:48:04;2.20;;;1.60;;
21432;SDS011;18592;49.708;10.900;2022-07-29T00:50:07;3.72;;;1.73;;
21432;SDS011;18592;49.708;10.900;2022-07-29T00:52:10;2.50;;;1.65;;
21432;SDS011;18592;49.708;10.900;2022-07-29T00:54:17;2.22;;;1.85;;
21432;SDS011;18592;49.708;10.900;2022-07-29T00:56:19;1.95;;;1.50;;
21432;SDS011;18592;49.708;10.900;2022-07-29T00:58:21;1.83;;;1.55;;
21432;SDS011;18592;49.708;10.900;2022-07-29T01:00:24;3.17;;;1.55;;
21432;SDS011;18592;49.708;10.900;2022-07-29T01:02:28;2.13;;;1.70;;
21432;SDS011;18592;49.708;10.900;2022-07-29T01:04:30;2.67;;;1.73;;
21432;SDS011;18592;49.708;10.900;2022-07-29T01:06:40;3.45;;;1.80;;
21432;SDS011;18592;49.708;10.900;2022-07-29T01:08:42;2.13;;;1.60;;
21432;SDS011;18592;49.708;10.900;2022-07-29T01:10:46;2.55;;;1.80;;
21432;SDS011;18592;49.708;10.900;2022-07-29T01:12:50;1.52;;;1.40;;
21432;SDS011;18592;49.708;10.900;2022-07-29T01:14:54;3.35;;;1.85;;
21432;SDS011;18592;49.708;10.900;2022-07-29T01:17:02;2.50;;;1.60;;
21432;SDS011;18592;49.708;10.900;2022-07-29T01:24:04;2.67;;;1.58;;
21432;SDS011;18592;49.708;10.900;2022-07-29T01:26:33;2.25;;;1.67;;
21432;SDS011;18592;49.708;10.900;2022-07-29T01:31:00;4.75;;;1.88;;
21432;SDS011;18592;49.708;10.900;2022-07-29T01:33:06;2.60;;;1.50;;
21432;SDS011;18592;49.708;10.900;2022-07-29T01:37:28;2.92;;;1.55;;
21432;SDS011;18592;49.708;10.900;2022-07-29T01:39:38;3.38;;;1.67;;
21432;SDS011;18592;49.708;10.900;2022-07-29T01:41:43;4.20;;;1.77;;
21432;SDS011;18592;49.708;10.900;2022-07-29T01:43:56;1.55;;;1.45;;
21432;SDS011;18592;49.708;10.900;2022-07-29T01:46:01;2.78;;;1.60;;
21432;SDS011;18592;49.708;10.900;2022-07-29T01:48:13;3.60;;;1.58;;
21432;SDS011;18592;49.708;10.900;2022-07-29T01:50:16;2.58;;;1.67;;
21432;SDS011;18592;49.708;10.900;2022-07-29T01:52:25;4.38;;;1.85;;
21432;SDS011;18592;49.708;10.900;2022-07-29T01:54:38;3.03;;;1.58;;
21432;SDS011;18592;49.708;10.900;2022-07-29T01:56:48;2.08;;;1.67;;
21432;SDS011;18592;49.708;10.900;2022-07-29T01:58:52;2.28;;;1.60;;
21432;SDS011;18592;49.708;10.900;2022-07-29T02:00:56;2.22;;;1.55;;
21432;SDS011;18592;49.708;10.900;2022-07-29T02:03:00;2.28;;;1.60;;
21432;SDS011;18592;49.708;10.900;2022-07-29T02:05:07;2.80;;;1.65;;
21432;SDS011;18592;49.708;10.900;2022-07-29T02:07:12;2.28;;;1.42;;
21432;SDS011;18592;49.708;10.900;2022-07-29T02:09:18;1.65;;;1.50;;
21432;SDS011;18592;49.708;10.900;2022-07-29T02:11:22;2.00;;;1.38;;
21432;SDS011;18592;49.708;10.900;2022-07-29T02:13:23;2.85;;;1.85;;
21432;SDS011;18592;49.708;10.900;2022-07-29T02:15:28;4.05;;;1.98;;
21432;SDS011;18592;49.708;10.900;2022-07-29T02:17:34;2.88;;;1.88;;
21432;SDS011;18592;49.708;10.900;2022-07-29T02:19:42;2.70;;;1.70;;
21432;SDS011;18592;49.708;10.900;2022-07-29T02:21:45;2.67;;;1.60;;
21432;SDS011;18592;49.708;10.900;2022-07-29T02:23:48;2.17;;;1.50;;
21432;SDS011;18592;49.708;10.900;2022-07-29T02:25:53;1.98;;;1.50;;
21432;SDS011;18592;49.708;10.900;2022-07-29T02:27:57;3.38;;;1.65;;
21432;SDS011;18592;49.708;10.900;2022-07-29T02:30:03;4.35;;;1.88;;
21432;SDS011;18592;49.708;10.900;2022-07-29T02:32:06;2.17;;;1.65;;
21432;SDS011;18592;49.708;10.900;2022-07-29T02:34:10;2.63;;;1.77;;
21432;SDS011;18592;49.708;10.900;2022-07-29T02:36:13;2.65;;;1.88;;
21432;SDS011;18592;49.708;10.900;2022-07-29T02:38:17;1.75;;;1.58;;
21432;SDS011;18592;49.708;10.900;2022-07-29T02:40:38;2.67;;;1.70;;
21432;SDS011;18592;49.708;10.900;2022-07-29T02:42:43;2.15;;;1.70;;
21432;SDS011;18592;49.708;10.900;2022-07-29T02:44:45;3.53;;;1.85;;
21432;SDS011;18592;49.708;10.900;2022-07-29T02:48:56;2.03;;;1.40;;
21432;SDS011;18592;49.708;10.900;2022-07-29T02:51:08;5.05;;;1.98;;
21432;SDS011;18592;49.708;10.900;2022-07-29T02:53:35;3.35;;;1.80;;
21432;SDS011;18592;49.708;10.900;2022-07-29T02:55:46;2.08;;;1.85;;
21432;SDS011;18592;49.708;10.900;2022-07-29T02:58:05;3.00;;;1.95;;
21432;SDS011;18592;49.708;10.900;2022-07-29T03:00:13;3.67;;;1.90;;
21432;SDS011;18592;49.708;10.900;2022-07-29T03:02:16;2.63;;;1.85;;
21432;SDS011;18592;49.708;10.900;2022-07-29T03:04:19;5.15;;;1.90;;
21432;SDS011;18592;49.708;10.900;2022-07-29T03:06:24;2.50;;;1.75;;
21432;SDS011;18592;49.708;10.900;2022-07-29T03:08:38;2.75;;;1.77;;
21432;SDS011;18592;49.708;10.900;2022-07-29T03:10:42;2.97;;;1.95;;
21432;SDS011;18592;49.708;10.900;2022-07-29T03:12:47;2.70;;;1.55;;
21432;SDS011;18592;49.708;10.900;2022-07-29T03:14:49;4.55;;;1.77;;
21432;SDS011;18592;49.708;10.900;2022-07-29T03:16:50;2.63;;;1.85;;
21432;SDS011;18592;49.708;10.900;2022-07-29T03:18:53;2.85;;;1.67;;
21432;SDS011;18592;49.708;10.900;2022-07-29T03:20:55;2.20;;;1.40;;
21432;SDS011;18592;49.708;10.900;2022-07-29T03:22:57;1.85;;;1.55;;
21432;SDS011;18592;49.708;10.900;2022-07-29T03:25:06;2.50;;;1.48;;
21432;SDS011;18592;49.708;10.900;2022-07-29T03:27:09;2.95;;;1.80;;
21432;SDS011;18592;49.708;10.900;2022-07-29T03:29:11;2.97;;;1.92;;
21432;SDS011;18592;49.708;10.900;2022-07-29T03:31:14;2.47;;;1.80;;
21432;SDS011;18592;49.708;10.900;2022-07-29T03:33:17;2.45;;;1.63;;
21432;SDS011;18592;49.708;10.900;2022-07-29T03:35:19;2.13;;;1.67;;
21432;SDS011;18592;49.708;10.900;2022-07-29T03:37:21;3.13;;;1.70;;
21432;SDS011;18592;49.708;10.900;2022-07-29T03:39:24;2.45;;;1.73;;
21432;SDS011;18592;49.708;10.900;2022-07-29T03:41:28;3.15;;;1.70;;
21432;SDS011;18592;49.708;10.900;2022-07-29T03:43:34;4.07;;;1.70;;
21432;SDS011;18592;49.708;10.900;2022-07-29T03:45:50;3.00;;;2.00;;
21432;SDS011;18592;49.708;10.900;2022-07-29T03:47:57;2.38;;;1.88;;
21432;SDS011;18592;49.708;10.900;2022-07-29T03:50:05;3.08;;;1.85;;
21432;SDS011;18592;49.708;10.900;2022-07-29T03:52:11;2.10;;;1.60;;
21432;SDS011;18592;49.708;10.900;2022-07-29T03:54:12;2.75;;;1.75;;
21432;SDS011;18592;49.708;10.900;2022-07-29T03:56:15;3.72;;;1.98;;
21432;SDS011;18592;49.708;10.900;2022-07-29T03:58:18;2.30;;;1.63;;
21432;SDS011;18592;49.708;10.900;2022-07-29T04:00:20;3.47;;;1.90;;
21432;SDS011;18592;49.708;10.900;2022-07-29T04:02:24;2.17;;;1.80;;
21432;SDS011;18592;49.708;10.900;2022-07-29T04:04:34;3.38;;;1.92;;
21432;SDS011;18592;49.708;10.900;2022-07-29T04:06:43;4.55;;;2.63;;
21432;SDS011;18592;49.708;10.900;2022-07-29T04:08:48;3.13;;;2.35;;
21432;SDS011;18592;49.708;10.900;2022-07-29T04:10:50;4.00;;;2.42;;
21432;SDS011;18592;49.708;10.900;2022-07-29T04:12:53;4.05;;;2.20;;
21432;SDS011;18592;49.708;10.900;2022-07-29T04:14:55;4.20;;;2.40;;
21432;SDS011;18592;49.708;10.900;2022-07-29T04:16:56;3.15;;;2.17;;
21432;SDS011;18592;49.708;10.900;2022-07-29T04:18:58;3.75;;;2.25;;
21432;SDS011;18592;49.708;10.900;2022-07-29T04:21:00;3.65;;;1.92;;
21432;SDS011;18592;49.708;10.900;2022-07-29T04:23:02;8.60;;;1.95;;
21432;SDS011;18592;49.708;10.900;2022-07-29T04:25:04;3.38;;;1.70;;
21432;SDS011;18592;49.708;10.900;2022-07-29T04:27:06;2.30;;;2.10;;
21432;SDS011;18592;49.708;10.900;2022-07-29T04:29:07;5.25;;;2.20;;
21432;SDS011;18592;49.708;10.900;2022-07-29T04:31:09;2.95;;;2.03;;
21432;SDS011;18592;49.708;10.900;2022-07-29T04:33:12;5.35;;;2.25;;
21432;SDS011;18592;49.708;10.900;2022-07-29T04:35:13;2.95;;;1.90;;
21432;SDS011;18592;49.708;10.900;2022-07-29T04:37:15;2.55;;;1.75;;
21432;SDS011;18592;49.708;10.900;2022-07-29T04:39:17;4.43;;;1.98;;
21432;SDS011;18592;49.708;10.900;2022-07-29T04:41:23;8.10;;;2.22;;
21432;SDS011;18592;49.708;10.900;2022-07-29T04:43:34;8.35;;;2.40;;
21432;SDS011;18592;49.708;10.900;2022-07-29T04:45:37;17.05;;;2.88;;
21432;SDS011;18592;49.708;10.900;2022-07-29T04:47:38;11.32;;;2.47;;
21432;SDS011;18592;49.708;10.900;2022-07-29T04:49:40;9.32;;;2.50;;
21432;SDS011;18592;49.708;10.900;2022-07-29T04:51:42;5.25;;;2.13;;
21432;SDS011;18592;49.708;10.900;2022-07-29T04:53:43;4.10;;;2.00;;
21432;SDS011;18592;49.708;10.900;2022-07-29T04:55:45;4.80;;;2.03;;
21432;SDS011;18592;49.708;10.900;2022-07-29T04:57:48;3.78;;;2.10;;
21432;SDS011;18592;49.708;10.900;2022-07-29T04:59:50;6.03;;;1.90;;
21432;SDS011;18592;49.708;10.900;2022-07-29T05:01:51;5.63;;;2.20;;
21432;SDS011;18592;49.708;10.900;2022-07-29T05:03:53;4.90;;;2.20;;
21432;SDS011;18592;49.708;10.900;2022-07-29T05:06:00;4.85;;;2.20;;
21432;SDS011;18592;49.708;10.900;2022-07-29T05:08:02;2.53;;;1.67;;
21432;SDS011;18592;49.708;10.900;2022-07-29T05:10:04;4.35;;;2.03;;
21432;SDS011;18592;49.708;10.900;2022-07-29T05:12:06;4.97;;;1.95;;
21432;SDS011;18592;49.708;10.900;2022-07-29T05:14:09;5.88;;;2.25;;
21432;SDS011;18592;49.708;10.900;2022-07-29T05:16:10;3.90;;;2.03;;
21432;SDS011;18592;49.708;10.900;2022-07-29T05:18:12;4.40;;;1.90;;
21432;SDS011;18592;49.708;10.900;2022-07-29T05:20:14;5.80;;;2.05;;
21432;SDS011;18592;49.708;10.900;2022-07-29T05:22:15;4.72;;;1.95;;
21432;SDS011;18592;49.708;10.900;2022-07-29T05:24:17;3.60;;;1.75;;
21432;SDS011;18592;49.708;10.900;2022-07-29T05:26:20;2.80;;;1.92;;
21432;SDS011;18592;49.708;10.900;2022-07-29T05:28:21;4.15;;;2.13;;
21432;SDS011;18592;49.708;10.900;2022-07-29T05:30:23;3.10;;;1.90;;
21432;SDS011;18592;49.708;10.900;2022-07-29T05:32:25;2.70;;;2.38;;
21432;SDS011;18592;49.708;10.900;2022-07-29T05:34:27;4.50;;;2.33;;
21432;SDS011;18592;49.708;10.900;2022-07-29T05:36:28;3.05;;;2.40;;
21432;SDS011;18592;49.708;10.900;2022-07-29T05:38:30;3.53;;;2.33;;
21432;SDS011;18592;49.708;10.900;2022-07-29T05:40:31;5.60;;;2.40;;
21432;SDS011;18592;49.708;10.900;2022-07-29T05:42:33;3.78;;;2.20;;
21432;SDS011;18592;49.708;10.900;2022-07-29T05:44:38;7.53;;;2.38;;
21432;SDS011;18592;49.708;10.900;2022-07-29T05:46:40;3.03;;;2.20;;
21432;SDS011;18592;49.708;10.900;2022-07-29T05:48:42;6.00;;;2.35;;
21432;SDS011;18592;49.708;10.900;2022-07-29T05:50:44;2.72;;;2.15;;
21432;SDS011;18592;49.708;10.900;2022-07-29T05:52:48;5.35;;;2.17;;
21432;SDS011;18592;49.708;10.900;2022-07-29T05:54:50;4.70;;;2.10;;
21432;SDS011;18592;49.708;10.900;2022-07-29T05:56:52;3.72;;;2.50;;
21432;SDS011;18592;49.708;10.900;2022-07-29T05:58:54;6.75;;;2.50;;
21432;SDS011;18592;49.708;10.900;2022-07-29T06:00:56;6.35;;;2.60;;
21432;SDS011;18592;49.708;10.900;2022-07-29T06:03:00;2.45;;;1.92;;
21432;SDS011;18592;49.708;10.900;2022-07-29T06:05:02;4.95;;;1.95;;
21432;SDS011;18592;49.708;10.900;2022-07-29T06:07:04;5.00;;;2.00;;
21432;SDS011;18592;49.708;10.900;2022-07-29T06:09:06;3.55;;;2.17;;
21432;SDS011;18592;49.708;10.900;2022-07-29T06:11:12;2.15;;;1.95;;
21432;SDS011;18592;49.708;10.900;2022-07-29T06:13:14;2.35;;;2.15;;
21432;SDS011;18592;49.708;10.900;2022-07-29T06:15:17;5.65;;;2.13;;
21432;SDS011;18592;49.708;10.900;2022-07-29T06:17:19;4.32;;;2.05;;
21432;SDS011;18592;49.708;10.900;2022-07-29T06:19:20;5.07;;;2.33;;
21432;SDS011;18592;49.708;10.900;2022-07-29T06:21:22;3.35;;;2.08;;
21432;SDS011;18592;49.708;10.900;2022-07-29T06:23:24;3.95;;;2.30;;
21432;SDS011;18592;49.708;10.900;2022-07-29T06:25:25;3.35;;;2.33;;
21432;SDS011;18592;49.708;10.900;2022-07-29T06:27:30;4.05;;;1.83;;
21432;SDS011;18592;49.708;10.900;2022-07-29T06:29:32;4.13;;;1.98;;
21432;SDS011;18592;49.708;10.900;2022-07-29T06:31:33;3.83;;;2.30;;
21432;SDS011;18592;49.708;10.900;2022-07-29T06:33:35;4.97;;;2.33;;
21432;SDS011;18592;49.708;10.900;2022-07-29T06:35:37;4.07;;;2.00;;
21432;SDS011;18592;49.708;10.900;2022-07-29T06:37:42;3.28;;;2.20;;
21432;SDS011;18592;49.708;10.900;2022-07-29T06:39:46;2.42;;;1.80;;
21432;SDS011;18592;49.708;10.900;2022-07-29T06:41:48;3.65;;;2.20;;
21432;SDS011;18592;49.708;10.900;2022-07-29T06:43:50;2.42;;;1.73;;
21432;SDS011;18592;49.708;10.900;2022-07-29T06:45:58;2.85;;;1.85;;
21432;SDS011;18592;49.708;10.900;2022-07-29T06:48:03;2.33;;;1.85;;
21432;SDS011;18592;49.708;10.900;2022-07-29T06:50:06;2.55;;;1.92;;
21432;SDS011;18592;49.708;10.900;2022-07-29T06:52:08;4.47;;;2.13;;
21432;SDS011;18592;49.708;10.900;2022-07-29T06:54:10;4.40;;;2.05;;
21432;SDS011;18592;49.708;10.900;2022-07-29T06:56:12;2.72;;;2.17;;
21432;SDS011;18592;49.708;10.900;2022-07-29T06:58:15;3.33;;;2.08;;
21432;SDS011;18592;49.708;10.900;2022-07-29T07:00:28;3.25;;;1.90;;
21432;SDS011;18592;49.708;10.900;2022-07-29T07:02:30;2.47;;;1.80;;
21432;SDS011;18592;49.708;10.900;2022-07-29T07:04:32;3.13;;;2.20;;
21432;SDS011;18592;49.708;10.900;2022-07-29T07:06:33;2.90;;;2.40;;
21432;SDS011;18592;49.708;10.900;2022-07-29T07:08:38;3.97;;;2.30;;
21432;SDS011;18592;49.708;10.900;2022-07-29T07:10:40;6.65;;;2.30;;
21432;SDS011;18592;49.708;10.900;2022-07-29T07:12:42;4.45;;;2.15;;
21432;SDS011;18592;49.708;10.900;2022-07-29T07:14:43;5.13;;;2.03;;
21432;SDS011;18592;49.708;10.900;2022-07-29T07:16:45;2.67;;;2.10;;
21432;SDS011;18592;49.708;10.900;2022-07-29T07:18:48;3.72;;;2.30;;
21432;SDS011;18592;49.708;10.900;2022-07-29T07:20:49;2.10;;;1.88;;
21432;SDS011;18592;49.708;10.900;2022-07-29T07:22:51;2.10;;;1.90;;
21432;SDS011;18592;49.708;10.900;2022-07-29T07:24:52;4.20;;;2.70;;
21432;SDS011;18592;49.708;10.900;2022-07-29T07:26:54;2.00;;;1.90;;
21432;SDS011;18592;49.708;10.900;2022-07-29T07:28:56;3.97;;;2.10;;
21432;SDS011;18592;49.708;10.900;2022-07-29T07:30:59;3.17;;;2.20;;
21432;SDS011;18592;49.708;10.900;2022-07-29T07:33:01;3.63;;;1.95;;
21432;SDS011;18592;49.708;10.900;2022-07-29T07:35:04;2.35;;;2.13;;
21432;SDS011;18592;49.708;10.900;2022-07-29T07:37:07;2.40;;;2.20;;
21432;SDS011;18592;49.708;10.900;2022-07-29T07:39:09;3.80;;;2.00;;
21432;SDS011;18592;49.708;10.900;2022-07-29T07:41:11;2.00;;;1.70;;
21432;SDS011;18592;49.708;10.900;2022-07-29T07:43:13;2.63;;;1.67;;
21432;SDS011;18592;49.708;10.900;2022-07-29T07:45:14;1.90;;;1.80;;
21432;SDS011;18592;49.708;10.900;2022-07-29T07:47:17;2.45;;;1.90;;
21432;SDS011;18592;49.708;10.900;2022-07-29T07:49:22;3.20;;;2.20;;
21432;SDS011;18592;49.708;10.900;2022-07-29T07:51:24;3.28;;;2.40;;
21432;SDS011;18592;49.708;10.900;2022-07-29T07:53:26;3.80;;;2.08;;
21432;SDS011;18592;49.708;10.900;2022-07-29T07:55:27;3.13;;;2.50;;
21432;SDS011;18592;49.708;10.900;2022-07-29T07:57:49;3.08;;;2.05;;
21432;SDS011;18592;49.708;10.900;2022-07-29T07:59:51;2.60;;;1.88;;
21432;SDS011;18592;49.708;10.900;2022-07-29T08:01:52;2.25;;;2.00;;
21432;SDS011;18592;49.708;10.900;2022-07-29T08:03:56;3.28;;;2.08;;
21432;SDS011;18592;49.708;10.900;2022-07-29T08:05:58;2.95;;;2.15;;
21432;SDS011;18592;49.708;10.900;2022-07-29T08:08:00;2.40;;;2.05;;
21432;SDS011;18592;49.708;10.900;2022-07-29T08:10:02;3.28;;;2.25;;
21432;SDS011;18592;49.708;10.900;2022-07-29T08:12:04;3.10;;;2.10;;
21432;SDS011;18592;49.708;10.900;2022-07-29T08:14:06;2.85;;;1.98;;
21432;SDS011;18592;49.708;10.900;2022-07-29T08:16:08;4.43;;;2.17;;
21432;SDS011;18592;49.708;10.900;2022-07-29T08:18:14;2.30;;;2.08;;
21432;SDS011;18592;49.708;10.900;2022-07-29T08:20:16;2.35;;;2.10;;
21432;SDS011;18592;49.708;10.900;2022-07-29T08:22:18;2.92;;;2.13;;
21432;SDS011;18592;49.708;10.900;2022-07-29T08:24:20;3.03;;;2.13;;
21432;SDS011;18592;49.708;10.900;2022-07-29T08:26:41;2.63;;;2.40;;
21432;SDS011;18592;49.708;10.900;2022-07-29T08:28:45;4.35;;;2.40;;
21432;SDS011;18592;49.708;10.900;2022-07-29T08:30:50;3.13;;;2.00;;
21432;SDS011;18592;49.708;10.900;2022-07-29T08:32:52;3.03;;;2.13;;
21432;SDS011;18592;49.708;10.900;2022-07-29T08:34:55;3.03;;;2.17;;
21432;SDS011;18592;49.708;10.900;2022-07-29T08:36:57;3.97;;;2.30;;
21432;SDS011;18592;49.708;10.900;2022-07-29T08:38:59;3.22;;;2.17;;
21432;SDS011;18592;49.708;10.900;2022-07-29T08:41:02;3.17;;;2.03;;
21432;SDS011;18592;49.708;10.900;2022-07-29T08:43:07;4.05;;;2.28;;
21432;SDS011;18592;49.708;10.900;2022-07-29T08:45:09;2.58;;;2.28;;
21432;SDS011;18592;49.708;10.900;2022-07-29T08:47:13;3.45;;;2.38;;
21432;SDS011;18592;49.708;10.900;2022-07-29T08:49:16;2.75;;;1.95;;
21432;SDS011;18592;49.708;10.900;2022-07-29T08:51:19;2.97;;;2.20;;
21432;SDS011;18592;49.708;10.900;2022-07-29T08:53:22;2.20;;;2.00;;
21432;SDS011;18592;49.708;10.900;2022-07-29T08:55:27;4.43;;;2.10;;
21432;SDS011;18592;49.708;10.900;2022-07-29T08:57:29;4.35;;;2.47;;
21432;SDS011;18592;49.708;10.900;2022-07-29T08:59:33;4.18;;;2.05;;
21432;SDS011;18592;49.708;10.900;2022-07-29T09:01:38;4.03;;;2.40;;
21432;SDS011;18592;49.708;10.900;2022-07-29T09:03:45;3.25;;;2.17;;
21432;SDS011;18592;49.708;10.900;2022-07-29T09:05:47;2.50;;;2.30;;
21432;SDS011;18592;49.708;10.900;2022-07-29T09:07:50;3.50;;;2.05;;
21432;SDS011;18592;49.708;10.900;2022-07-29T09:09:52;2.47;;;2.10;;
21432;SDS011;18592;49.708;10.900;2022-07-29T09:11:56;2.90;;;2.45;;
21432;SDS011;18592;49.708;10.900;2022-07-29T09:13:58;2.78;;;2.13;;
21432;SDS011;18592;49.708;10.900;2022-07-29T09:16:00;3.60;;;2.03;;
21432;SDS011;18592;49.708;10.900;2022-07-29T09:18:09;3.03;;;2.40;;
21432;SDS011;18592;49.708;10.900;2022-07-29T09:20:31;3.13;;;2.55;;
21432;SDS011;18592;49.708;10.900;2022-07-29T09:22:52;2.67;;;2.10;;
21432;SDS011;18592;49.708;10.900;2022-07-29T09:24:54;3.55;;;1.90;;
21432;SDS011;18592;49.708;10.900;2022-07-29T09:26:56;2.88;;;2.20;;
21432;SDS011;18592;49.708;10.900;2022-07-29T09:28:58;2.97;;;2.40;;
21432;SDS011;18592;49.708;10.900;2022-07-29T09:31:00;2.25;;;1.90;;
21432;SDS011;18592;49.708;10.900;2022-07-29T09:33:03;2.80;;;2.30;;
21432;SDS011;18592;49.708;10.900;2022-07-29T09:35:22;3.25;;;1.70;;
21432;SDS011;18592;49.708;10.900;2022-07-29T09:37:26;2.28;;;2.08;;
21432;SDS011;18592;49.708;10.900;2022-07-29T09:39:36;4.43;;;2.40;;
21432;SDS011;18592;49.708;10.900;2022-07-29T09:43:55;3.10;;;2.10;;
21432;SDS011;18592;49.708;10.900;2022-07-29T09:46:11;3.53;;;2.30;;
21432;SDS011;18592;49.708;10.900;2022-07-29T09:48:15;2.30;;;2.10;;
21432;SDS011;18592;49.708;10.900;2022-07-29T09:50:22;2.55;;;2.05;;
21432;SDS011;18592;49.708;10.900;2022-07-29T09:52:44;2.42;;;2.22;;
21432;SDS011;18592;49.708;10.900;2022-07-29T09:54:47;2.42;;;2.10;;
21432;SDS011;18592;49.708;10.900;2022-07-29T09:56:49;3.20;;;2.20;;
21432;SDS011;18592;49.708;10.900;2022-07-29T09:59:04;3.03;;;2.20;;
21432;SDS011;18592;49.708;10.900;2022-07-29T10:01:07;3.00;;;2.30;;
21432;SDS011;18592;49.708;10.900;2022-07-29T10:03:09;3.13;;;2.53;;
21432;SDS011;18592;49.708;10.900;2022-07-29T10:05:23;2.40;;;2.20;;
21432;SDS011;18592;49.708;10.900;2022-07-29T10:07:26;3.55;;;2.42;;
21432;SDS011;18592;49.708;10.900;2022-07-29T10:09:28;2.70;;;2.45;;
21432;SDS011;18592;49.708;10.900;2022-07-29T10:11:30;3.78;;;2.55;;
21432;SDS011;18592;49.708;10.900;2022-07-29T10:13:50;2.42;;;2.22;;
21432;SDS011;18592;49.708;10.900;2022-07-29T10:15:51;2.30;;;2.10;;
21432;SDS011;18592;49.708;10.900;2022-07-29T10:17:54;3.42;;;2.47;;
21432;SDS011;18592;49.708;10.900;2022-07-29T10:19:56;3.55;;;2.63;;
21432;SDS011;18592;49.708;10.900;2022-07-29T10:21:59;2.72;;;2.47;;
21432;SDS011;18592;49.708;10.900;2022-07-29T10:24:04;2.75;;;2.53;;
21432;SDS011;18592;49.708;10.900;2022-07-29T10:26:15;3.33;;;2.40;;
21432;SDS011;18592;49.708;10.900;2022-07-29T10:28:18;4.10;;;2.70;;
21432;SDS011;18592;49.708;10.900;2022-07-29T10:30:21;4.70;;;2.33;;
21432;SDS011;18592;49.708;10.900;2022-07-29T10:32:29;4.70;;;2.65;;
21432;SDS011;18592;49.708;10.900;2022-07-29T10:36:59;4.20;;;2.63;;
21432;SDS011;18592;49.708;10.900;2022-07-29T10:43:45;2.50;;;2.30;;
21432;SDS011;18592;49.708;10.900;2022-07-29T10:45:55;3.85;;;2.53;;
21432;SDS011;18592;49.708;10.900;2022-07-29T10:48:03;2.97;;;2.60;;
21432;SDS011;18592;49.708;10.900;2022-07-29T10:50:08;2.58;;;2.38;;
21432;SDS011;18592;49.708;10.900;2022-07-29T10:52:17;3.40;;;2.33;;
21432;SDS011;18592;49.708;10.900;2022-07-29T10:56:34;2.83;;;2.50;;
21432;SDS011;18592;49.708;10.900;2022-07-29T10:58:38;3.22;;;2.50;;
21432;SDS011;18592;49.708;10.900;2022-07-29T11:00:41;2.97;;;2.40;;
21432;SDS011;18592;49.708;10.900;2022-07-29T11:02:46;3.63;;;2.30;;
21432;SDS011;18592;49.708;10.900;2022-07-29T11:09:17;2.85;;;2.45;;
21432;SDS011;18592;49.708;10.900;2022-07-29T11:11:35;2.33;;;2.13;;
21432;SDS011;18592;49.708;10.900;2022-07-29T11:15:56;2.83;;;2.08;;
21432;SDS011;18592;49.708;10.900;2022-07-29T11:22:40;2.58;;;2.28;;
21432;SDS011;18592;49.708;10.900;2022-07-29T11:25:17;2.72;;;2.35;;
21432;SDS011;18592;49.708;10.900;2022-07-29T11:27:39;2.25;;;2.15;;
21432;SDS011;18592;49.708;10.900;2022-07-29T11:29:48;3.28;;;2.70;;
21432;SDS011;18592;49.708;10.900;2022-07-29T11:32:09;4.55;;;2.70;;
21432;SDS011;18592;49.708;10.900;2022-07-29T11:34:24;3.05;;;2.42;;
21432;SDS011;18592;49.708;10.900;2022-07-29T11:36:29;2.15;;;2.05;;
21432;SDS011;18592;49.708;10.900;2022-07-29T11:38:31;2.60;;;2.40;;
21432;SDS011;18592;49.708;10.900;2022-07-29T11:40:33;3.55;;;2.25;;
21432;SDS011;18592;49.708;10.900;2022-07-29T11:42:36;3.08;;;2.20;;
21432;SDS011;18592;49.708;10.900;2022-07-29T11:44:54;2.92;;;2.63;;
21432;SDS011;18592;49.708;10.900;2022-07-29T11:47:08;2.63;;;2.35;;
21432;SDS011;18592;49.708;10.900;2022-07-29T11:49:11;2.20;;;1.98;;
21432;SDS011;18592;49.708;10.900;2022-07-29T11:51:15;2.60;;;2.40;;
21432;SDS011;18592;49.708;10.900;2022-07-29T11:53:18;2.50;;;2.30;;
21432;SDS011;18592;49.708;10.900;2022-07-29T11:55:20;2.63;;;2.42;;
21432;SDS011;18592;49.708;10.900;2022-07-29T11:57:34;3.22;;;2.25;;
21432;SDS011;18592;49.708;10.900;2022-07-29T11:59:38;2.25;;;2.00;;
21432;SDS011;18592;49.708;10.900;2022-07-29T12:01:57;2.40;;;2.20;;
21432;SDS011;18592;49.708;10.900;2022-07-29T12:04:23;2.50;;;2.28;;
21432;SDS011;18592;49.708;10.900;2022-07-29T12:06:26;2.45;;;2.25;;
21432;SDS011;18592;49.708;10.900;2022-07-29T12:08:28;2.80;;;2.25;;
21432;SDS011;18592;49.708;10.900;2022-07-29T12:10:30;4.68;;;2.22;;
21432;SDS011;18592;49.708;10.900;2022-07-29T12:12:34;2.60;;;2.40;;
21432;SDS011;18592;49.708;10.900;2022-07-29T12:14:36;2.58;;;2.38;;
21432;SDS011;18592;49.708;10.900;2022-07-29T12:16:39;2.40;;;2.20;;
21432;SDS011;18592;49.708;10.900;2022-07-29T12:18:41;2.35;;;2.15;;
21432;SDS011;18592;49.708;10.900;2022-07-29T12:20:43;3.15;;;2.25;;
21432;SDS011;18592;49.708;10.900;2022-07-29T12:22:45;3.70;;;2.70;;
21432;SDS011;18592;49.708;10.900;2022-07-29T12:24:49;2.47;;;2.28;;
21432;SDS011;18592;49.708;10.900;2022-07-29T12:26:58;2.55;;;2.35;;
21432;SDS011;18592;49.708;10.900;2022-07-29T12:29:01;2.50;;;2.30;;
21432;SDS011;18592;49.708;10.900;2022-07-29T12:31:04;2.30;;;2.10;;
21432;SDS011;18592;49.708;10.900;2022-07-29T12:33:12;3.00;;;2.72;;
21432;SDS011;18592;49.708;10.900;2022-07-29T12:35:25;2.50;;;2.30;;
21432;SDS011;18592;49.708;10.900;2022-07-29T12:37:27;2.50;;;2.30;;
21432;SDS011;18592;49.708;10.900;2022-07-29T12:39:42;2.38;;;2.17;;
21432;SDS011;18592;49.708;10.900;2022-07-29T12:41:44;2.60;;;2.40;;
21432;SDS011;18592;49.708;10.900;2022-07-29T12:43:55;2.83;;;2.28;;
21432;SDS011;18592;49.708;10.900;2022-07-29T12:45:57;2.47;;;2.30;;
21432;SDS011;18592;49.708;10.900;2022-07-29T12:48:12;3.20;;;2.40;;
21432;SDS011;18592;49.708;10.900;2022-07-29T12:50:15;2.60;;;2.40;;
21432;SDS011;18592;49.708;10.900;2022-07-29T12:54:33;2.70;;;2.50;;
21432;SDS011;18592;49.708;10.900;2022-07-29T12:56:35;2.60;;;2.38;;